createdAt,value
2019-02-06T00:00:39.175Z,32.4
2019-02-06T00:01:20.955Z,32.2
2019-02-06T00:02:10.905Z,32.1
2019-02-06T00:03:04.313Z,31.9
2019-02-06T00:03:50.487Z,31.8
2019-02-06T00:04:41.910Z,31.7
2019-02-06T00:05:30.919Z,30.9
2019-02-06T00:06:20.487Z,30.5
2019-02-06T00:07:11.187Z,30.2
2019-02-06T00:08:01.267Z,29.9
2019-02-06T00:08:53.767Z,29.8
2019-02-06T00:09:41.759Z,29.2
2019-02-06T00:10:32.117Z,29.4
2019-02-06T00:11:21.523Z,30.6
2019-02-06T00:12:12.290Z,31.4
2019-02-06T00:13:02.509Z,31.8
2019-02-06T00:13:52.505Z,32.1
2019-02-06T00:14:43.226Z,32.4
2019-02-06T00:15:31.231Z,32.6
2019-02-06T00:16:22.297Z,32.9
2019-02-06T00:17:11.637Z,33.2
2019-02-06T00:18:06.023Z,33.4
2019-02-06T00:18:52.114Z,33.7
2019-02-06T00:19:41.181Z,33.4
2019-02-06T00:20:32.491Z,33.2
2019-02-06T00:21:26.166Z,33.1
2019-02-06T00:22:12.069Z,32.9
2019-02-06T00:23:01.066Z,32.8
2019-02-06T00:23:55.176Z,32.7
2019-02-06T00:24:43.461Z,32.5
2019-02-06T00:25:32.171Z,32.4
2019-02-06T00:26:21.949Z,32.2
2019-02-06T00:27:14.148Z,32
2019-02-06T00:28:02.932Z,31.9
2019-02-06T00:28:52.173Z,31.8
2019-02-06T00:29:43.406Z,31.7
2019-02-06T00:30:32.839Z,30.9
2019-02-06T00:31:22.753Z,30.4
2019-02-06T00:32:13.161Z,30.1
2019-02-06T00:33:04.941Z,29.9
2019-02-06T00:33:53.676Z,29.7
2019-02-06T00:34:43.160Z,29.1
2019-02-06T00:35:35.960Z,29.5
2019-02-06T00:36:26.339Z,30.8
2019-02-06T00:37:13.481Z,31.4
2019-02-06T00:38:07.416Z,31.8
2019-02-06T00:38:53.421Z,32.1
2019-02-06T00:39:43.527Z,32.4
2019-02-06T00:40:34.355Z,32.6
2019-02-06T00:41:23.024Z,32.9
2019-02-06T00:42:15.920Z,33.2
2019-02-06T00:43:03.463Z,33.5
2019-02-06T00:43:53.167Z,33.7
2019-02-06T00:44:43.650Z,33.3
2019-02-06T00:45:36.496Z,33.2
2019-02-06T00:46:24.195Z,33.1
2019-02-06T00:47:14.555Z,32.9
2019-02-06T00:48:03.390Z,32.8
2019-02-06T00:48:54.422Z,32.6
2019-02-06T00:49:44.455Z,32.5
2019-02-06T00:50:33.911Z,32.3
2019-02-06T00:51:26.814Z,32.1
2019-02-06T00:52:13.892Z,32
2019-02-06T00:53:04.961Z,31.8
2019-02-06T00:53:54.002Z,31.5
2019-02-06T00:54:46.152Z,30.9
2019-02-06T00:55:34.981Z,30.4
2019-02-06T00:56:24.919Z,30.2
2019-02-06T00:57:16.024Z,30
2019-02-06T00:58:04.597Z,29.8
2019-02-06T00:58:54.534Z,29.4
2019-02-06T00:59:44.127Z,29.2
2019-02-06T01:00:37.564Z,30.4
2019-02-06T01:01:25.564Z,31.2
2019-02-06T01:02:15.400Z,31.6
2019-02-06T01:03:05.499Z,31.9
2019-02-06T01:03:55.337Z,32.3
2019-02-06T01:04:44.637Z,32.6
2019-02-06T01:05:48.059Z,32.8
2019-02-06T01:06:27.216Z,33.2
2019-02-06T01:07:15.564Z,33.4
2019-02-06T01:08:04.894Z,33.7
2019-02-06T01:08:56.083Z,33.3
2019-02-06T01:09:48.544Z,33.2
2019-02-06T01:10:35.764Z,33.1
2019-02-06T01:11:24.856Z,32.9
2019-02-06T01:12:15.596Z,32.8
2019-02-06T01:13:05.866Z,32.6
2019-02-06T01:13:55.455Z,32.4
2019-02-06T01:14:45.813Z,32.3
2019-02-06T01:15:37.968Z,32.2
2019-02-06T01:16:26.387Z,32
2019-02-06T01:17:15.815Z,31.8
2019-02-06T01:18:06.253Z,31.7
2019-02-06T01:18:58.480Z,31.3
2019-02-06T01:19:45.953Z,30.7
2019-02-06T01:20:35.787Z,30.3
2019-02-06T01:21:26.840Z,30.1
2019-02-06T01:22:16.343Z,29.8
2019-02-06T01:23:04.988Z,29.6
2019-02-06T01:23:57.198Z,28.9
2019-02-06T01:24:49.232Z,29.9
2019-02-06T01:25:36.200Z,31.1
2019-02-06T01:26:26.622Z,31.6
2019-02-06T01:27:16.651Z,31.9
2019-02-06T01:28:07.087Z,32.1
2019-02-06T01:28:57.175Z,32.4
2019-02-06T01:29:46.197Z,32.7
2019-02-06T01:30:38.602Z,32.9
2019-02-06T01:31:27.387Z,33.3
2019-02-06T01:32:17.177Z,33.5
2019-02-06T01:33:07.005Z,33.8
2019-02-06T01:33:59.952Z,33.3
2019-02-06T01:34:47.662Z,33.1
2019-02-06T01:35:49.153Z,33
2019-02-06T01:36:27.757Z,32.8
2019-02-06T01:37:17.744Z,32.8
2019-02-06T01:38:06.902Z,32.6
2019-02-06T01:38:56.641Z,32.4
2019-02-06T01:39:49.311Z,32.3
2019-02-06T01:40:38.061Z,32.1
2019-02-06T01:41:27.883Z,31.9
2019-02-06T01:42:18.416Z,31.8
2019-02-06T01:43:07.381Z,31.6
2019-02-06T01:43:57.691Z,31.2
2019-02-06T01:44:48.163Z,30.6
2019-02-06T01:45:39.463Z,30.3
2019-02-06T01:46:28.168Z,30
2019-02-06T01:47:18.701Z,29.8
2019-02-06T01:48:07.771Z,29.5
2019-02-06T01:49:01.395Z,28.9
2019-02-06T01:49:51.266Z,30.2
2019-02-06T01:50:38.736Z,31.2
2019-02-06T01:51:29.122Z,31.6
2019-02-06T01:52:19.011Z,31.9
2019-02-06T01:53:08.082Z,32.2
2019-02-06T01:53:58.565Z,32.4
2019-02-06T01:54:51.078Z,32.8
2019-02-06T01:55:38.378Z,33.1
2019-02-06T01:56:29.266Z,33.3
2019-02-06T01:57:18.718Z,33.6
2019-02-06T01:58:11.888Z,33.5
2019-02-06T01:58:58.503Z,33.2
2019-02-06T01:59:48.950Z,33.1
2019-02-06T02:00:40.197Z,33
2019-02-06T02:01:29.048Z,32.8
2019-02-06T02:02:19.038Z,32.7
2019-02-06T02:03:09.748Z,32.5
2019-02-06T02:04:01.185Z,32.4
2019-02-06T02:04:49.845Z,32.2
2019-02-06T02:05:42.076Z,32.1
2019-02-06T02:06:29.382Z,31.9
2019-02-06T02:07:18.568Z,31.8
2019-02-06T02:08:09.200Z,31.1
2019-02-06T02:08:58.635Z,30.6
2019-02-06T02:09:51.412Z,30.3
2019-02-06T02:10:39.317Z,30
2019-02-06T02:11:29.685Z,29.8
2019-02-06T02:12:19.092Z,29.6
2019-02-06T02:13:13.324Z,28.9
2019-02-06T02:13:59.289Z,29.8
2019-02-06T02:14:49.901Z,30.8
2019-02-06T02:15:40.207Z,31.5
2019-02-06T02:16:30.127Z,31.8
2019-02-06T02:17:20.638Z,32.1
2019-02-06T02:18:09.096Z,32.4
2019-02-06T02:19:02.335Z,32.7
2019-02-06T02:19:50.536Z,33
2019-02-06T02:20:40.711Z,33.3
2019-02-06T02:21:30.384Z,33.5
2019-02-06T02:22:22.593Z,33.8
2019-02-06T02:23:10.749Z,33.3
2019-02-06T02:24:01.314Z,33.1
2019-02-06T02:24:50.841Z,33
2019-02-06T02:25:40.224Z,32.9
2019-02-06T02:26:30.136Z,32.8
2019-02-06T02:27:20.291Z,32.6
2019-02-06T02:28:13.826Z,32.4
2019-02-06T02:29:00.420Z,32.3
2019-02-06T02:29:51.210Z,32.1
2019-02-06T02:30:41.379Z,31.9
2019-02-06T02:31:35.748Z,31.8
2019-02-06T02:32:21.506Z,31.6
2019-02-06T02:33:10.398Z,30.9
2019-02-06T02:34:00.517Z,30.5
2019-02-06T02:34:51.058Z,30.2
2019-02-06T02:35:41.713Z,29.9
2019-02-06T02:36:31.287Z,29.8
2019-02-06T02:37:25.120Z,29.5
2019-02-06T02:38:12.576Z,28.9
2019-02-06T02:39:01.318Z,30.1
2019-02-06T02:39:52.092Z,31.2
2019-02-06T02:40:44.438Z,31.6
2019-02-06T02:41:31.547Z,31.9
2019-02-06T02:42:21.275Z,32.2
2019-02-06T02:43:13.022Z,32.4
2019-02-06T02:44:02.393Z,32.8
2019-02-06T02:44:51.568Z,33
2019-02-06T02:45:42.306Z,33.3
2019-02-06T02:46:35.170Z,33.6
2019-02-06T02:47:22.895Z,33.3
2019-02-06T02:48:13.251Z,33.2
2019-02-06T02:49:03.097Z,33
2019-02-06T02:49:54.007Z,32.9
2019-02-06T02:50:41.670Z,32.8
2019-02-06T02:51:32.852Z,32.6
2019-02-06T02:52:23.290Z,32.5
2019-02-06T02:53:11.957Z,32.3
2019-02-06T02:54:02.789Z,32.2
2019-02-06T02:54:53.309Z,32
2019-02-06T02:55:46.955Z,31.9
2019-02-06T02:56:33.859Z,31.7
2019-02-06T02:57:23.496Z,31.6
2019-02-06T02:58:13.389Z,30.9
2019-02-06T02:59:03.026Z,30.4
2019-02-06T02:59:53.111Z,30.1
2019-02-06T03:00:43.341Z,29.9
2019-02-06T03:01:34.889Z,29.7
2019-02-06T03:02:23.863Z,29.1
2019-02-06T03:03:13.349Z,29.3
2019-02-06T03:04:03.846Z,30.5
2019-02-06T03:04:56.310Z,31.3
2019-02-06T03:08:27.296Z,32.6
2019-02-06T03:09:16.189Z,32.9
2019-02-06T03:10:06.063Z,33.2
2019-02-06T03:10:55.165Z,33.4
2019-02-06T03:11:48.650Z,33.7
2019-02-06T03:12:35.760Z,33.2
2019-02-06T03:13:25.600Z,33.1
2019-02-06T03:14:16.649Z,33
2019-02-06T03:15:06.559Z,32.9
2019-02-06T03:15:56.903Z,32.7
2019-02-06T03:16:45.968Z,32.6
2019-02-06T03:17:39.625Z,32.4
2019-02-06T03:18:25.442Z,32.3
2019-02-06T03:19:16.333Z,32.1
2019-02-06T03:20:06.670Z,31.9
2019-02-06T03:20:59.300Z,31.8
2019-02-06T03:21:46.997Z,31.3
2019-02-06T03:22:40.425Z,30.8
2019-02-06T03:23:27.751Z,30.3
2019-02-06T03:24:16.992Z,30.1
2019-02-06T03:25:07.578Z,29.9
2019-02-06T03:25:56.875Z,29.7
2019-02-06T03:26:49.419Z,29.2
2019-02-06T03:27:37.410Z,29.4
2019-02-06T03:28:27.219Z,30.5
2019-02-06T03:29:16.955Z,31.4
2019-02-06T03:30:10.775Z,31.8
2019-02-06T03:30:57.401Z,32.1
2019-02-06T03:31:47.661Z,32.3
2019-02-06T03:32:37.891Z,32.6
2019-02-06T03:33:28.860Z,32.8
2019-02-06T03:34:17.422Z,33.1
2019-02-06T03:35:07.670Z,33.3
2019-02-06T03:36:00.809Z,33.6
2019-02-06T03:36:51.310Z,33.4
2019-02-06T03:37:38.099Z,33.1
2019-02-06T03:38:28.249Z,33.1
2019-02-06T03:39:18.644Z,32.9
2019-02-06T03:40:08.238Z,32.8
2019-02-06T03:40:58.096Z,32.6
2019-02-06T03:41:49.998Z,32.5
2019-02-06T03:42:37.634Z,32.3
2019-02-06T03:43:28.366Z,32.2
2019-02-06T03:44:18.416Z,32
2019-02-06T03:45:11.196Z,31.9
2019-02-06T03:45:58.759Z,31.7
2019-02-06T03:46:49.173Z,31.2
2019-02-06T03:47:39.461Z,30.6
2019-02-06T03:48:28.846Z,30.3
2019-02-06T03:49:18.203Z,30.1
2019-02-06T03:50:08.842Z,29.8
2019-02-06T03:51:01.499Z,29.6
2019-02-06T03:51:49.743Z,28.9
2019-02-06T03:52:38.640Z,29.6
2019-02-06T03:53:28.940Z,30.8
2019-02-06T03:54:21.052Z,31.4
2019-02-06T03:55:09.398Z,31.8
2019-02-06T03:55:58.853Z,32.1
2019-02-06T03:56:49.910Z,32.3
2019-02-06T03:57:39.848Z,32.6
2019-02-06T03:58:29.021Z,32.8
2019-02-06T03:59:19.940Z,33.1
2019-02-06T04:00:13.013Z,33.4
2019-02-06T04:00:59.767Z,33.6
2019-02-06T04:01:49.534Z,33.3
2019-02-06T04:02:39.805Z,33.1
2019-02-06T04:03:30.633Z,33
2019-02-06T04:04:20.002Z,32.9
2019-02-06T04:05:09.539Z,32.8
2019-02-06T04:06:01.880Z,32.6
2019-02-06T04:07:11.787Z,32.4
2019-02-06T04:07:39.439Z,32.3
2019-02-06T04:08:30.033Z,32.1
2019-02-06T04:09:23.024Z,32
2019-02-06T04:10:10.064Z,31.9
2019-02-06T04:10:59.912Z,31.8
2019-02-06T04:11:50.964Z,31.1
2019-02-06T04:12:40.349Z,30.6
2019-02-06T04:13:30.615Z,30.3
2019-02-06T04:14:20.467Z,30
2019-02-06T04:15:13.971Z,29.8
2019-02-06T04:16:01.220Z,29.6
2019-02-06T04:16:51.208Z,28.9
2019-02-06T04:17:39.039Z,29.5
2019-02-06T04:18:32.451Z,30.7
2019-02-06T04:19:20.531Z,31.5
2019-02-06T04:20:10.419Z,31.8
2019-02-06T04:21:01.646Z,32.1
2019-02-06T04:21:51.613Z,32.3
2019-02-06T04:22:40.582Z,32.6
2019-02-06T04:23:31.371Z,32.8
2019-02-06T04:24:23.571Z,33
2019-02-06T04:25:26.731Z,31.8
2019-02-06T04:26:01.812Z,29.9
2019-02-06T04:26:51.346Z,28.9
2019-02-06T04:27:44.131Z,27.1
2019-02-06T04:28:31.435Z,26.3
2019-02-06T04:29:21.441Z,26.2
2019-02-06T04:30:12.043Z,27.3
2019-02-06T04:31:02.294Z,28.8
2019-02-06T04:31:51.728Z,30.3
2019-02-06T04:32:41.489Z,31.1
2019-02-06T04:33:34.374Z,31.7
2019-02-06T06:06:23.747Z,29.3
2019-02-06T06:07:15.650Z,29.3
2019-02-06T06:08:07.792Z,30.3
2019-02-06T06:08:55.041Z,30.9
2019-02-06T06:09:44.498Z,31.3
2019-02-06T06:10:35.947Z,31.8
2019-02-06T06:11:27.764Z,32.2
2019-02-06T06:12:15.804Z,32.5
2019-02-06T06:13:05.545Z,32.9
2019-02-06T06:13:56.801Z,33.1
2019-02-06T06:14:46.431Z,33.4
2019-02-06T06:15:35.951Z,33.6
2019-02-06T06:16:26.082Z,33.8
2019-02-06T06:17:18.065Z,33.3
2019-02-06T06:18:06.136Z,33.1
2019-02-06T06:18:56.426Z,32.8
2019-02-06T06:19:46.796Z,32.6
2019-02-06T06:20:36.006Z,32.3
2019-02-06T06:21:26.306Z,32.2
2019-02-06T06:22:16.668Z,32
2019-02-06T06:23:08.609Z,31.8
2019-02-06T06:23:56.811Z,31.6
2019-02-06T06:24:46.263Z,31.4
2019-02-06T06:25:37.356Z,31.3
2019-02-06T06:26:28.338Z,31.1
2019-02-06T06:27:17.013Z,30.5
2019-02-06T06:28:07.647Z,30.1
2019-02-06T06:28:57.923Z,29.8
2019-02-06T06:29:47.223Z,29.6
2019-02-06T06:30:36.734Z,28.8
2019-02-06T06:31:26.038Z,29.6
2019-02-06T06:32:19.833Z,30.4
2019-02-06T06:33:08.060Z,31
2019-02-06T06:33:57.018Z,31.4
2019-02-06T06:34:46.175Z,31.9
2019-02-06T06:35:37.003Z,32.3
2019-02-06T06:36:27.166Z,32.6
2019-02-06T06:37:17.903Z,32.9
2019-02-06T06:38:12.987Z,33.2
2019-02-06T06:38:57.963Z,33.4
2019-02-06T06:39:48.445Z,33.6
2019-02-06T06:40:37.156Z,33.8
2019-02-06T06:41:29.736Z,33.3
2019-02-06T06:42:17.006Z,33
2019-02-06T06:43:08.707Z,32.8
2019-02-06T06:43:58.151Z,32.5
2019-02-06T06:44:47.087Z,32.3
2019-02-06T06:45:37.747Z,32.1
2019-02-06T06:46:26.942Z,31.9
2019-02-06T06:47:20.270Z,31.8
2019-02-06T06:48:08.472Z,31.6
2019-02-06T06:48:57.953Z,31.4
2019-02-06T06:49:48.322Z,31.3
2019-02-06T06:50:41.819Z,30.9
2019-02-06T06:51:29.034Z,30.3
2019-02-06T06:52:18.594Z,30
2019-02-06T06:53:08.772Z,29.8
2019-02-06T06:53:58.539Z,29.5
2019-02-06T06:54:48.636Z,29.4
2019-02-06T06:55:41.889Z,29.2
2019-02-06T06:56:29.912Z,29
2019-02-06T06:57:21.661Z,28.9
2019-02-06T06:58:08.489Z,28.8
2019-02-06T06:58:59.299Z,28.7
2019-02-06T06:59:50.749Z,28.3
2019-02-06T07:00:38.755Z,28.3
2019-02-06T07:01:28.648Z,29.6
2019-02-06T07:02:19.806Z,30.7
2019-02-06T07:03:08.593Z,31.7
2019-02-06T07:03:59.301Z,31.2
2019-02-06T07:06:25.585Z,30.4
2019-02-06T07:07:15.278Z,30.2
2019-02-06T07:08:21.016Z,30
2019-02-06T07:08:55.380Z,29.8
2019-02-06T07:09:45.608Z,29.6
2019-02-06T07:10:36.528Z,29.4
2019-02-06T07:11:27.595Z,29.3
2019-02-06T07:12:15.973Z,29.2
2019-02-06T07:13:05.790Z,29.1
2019-02-06T07:13:58.948Z,28.6
2019-02-06T07:14:46.852Z,28.3
2019-02-06T07:15:36.127Z,28.1
2019-02-06T07:16:25.597Z,27.9
2019-02-06T07:17:17.027Z,27.7
2019-02-06T07:18:05.832Z,27.6
2019-02-06T07:18:56.900Z,27.4
2019-02-06T07:19:46.243Z,27.4
2019-02-06T07:20:38.927Z,27
2019-02-06T07:21:25.973Z,27.5
2019-02-06T07:22:16.852Z,28.8
2019-02-06T07:23:05.572Z,30
2019-02-06T07:23:56.722Z,31.1
2019-02-06T07:24:46.452Z,31.6
2019-02-06T07:25:35.187Z,31.8
2019-02-06T07:26:27.992Z,32
2019-02-06T07:27:16.381Z,32.3
2019-02-06T07:28:06.829Z,31.9
2019-02-06T07:28:55.741Z,30.9
2019-02-06T07:29:49.963Z,29.4
2019-02-06T07:30:37.320Z,27.9
2019-02-06T07:31:27.591Z,26
2019-02-06T07:32:16.526Z,25.3
2019-02-06T07:33:06.369Z,25.2
2019-02-06T07:33:56.401Z,26.4
2019-02-06T07:34:47.461Z,27.9
2019-02-06T07:35:38.769Z,29.4
2019-02-06T07:36:26.753Z,30.9
2019-02-06T07:37:16.524Z,31
2019-02-06T07:38:07.156Z,30.9
2019-02-06T07:38:59.676Z,30.8
2019-02-06T07:39:47.078Z,30.7
2019-02-06T07:40:37.373Z,30.5
2019-02-06T07:41:28.661Z,30.4
2019-02-06T07:42:18.203Z,30.3
2019-02-06T07:43:08.525Z,30.1
2019-02-06T07:43:57.038Z,29.9
2019-02-06T07:44:50.858Z,29.8
2019-02-06T07:45:38.474Z,29.6
2019-02-06T07:46:28.886Z,29.5
2019-02-06T07:47:18.385Z,28.9
2019-02-06T07:48:07.436Z,28.5
2019-02-06T07:48:57.902Z,28.3
2019-02-06T07:49:48.300Z,28.1
2019-02-06T07:50:39.078Z,27.9
2019-02-06T07:51:28.145Z,27.8
2019-02-06T07:52:17.925Z,27.6
2019-02-06T07:53:08.897Z,27.5
2019-02-06T07:54:01.617Z,27
2019-02-06T07:54:48.592Z,28
2019-02-06T07:55:38.375Z,29.3
2019-02-06T07:56:28.759Z,30.4
2019-02-06T07:57:18.456Z,31.3
2019-02-06T07:58:08.852Z,31.7
2019-02-06T07:59:00.300Z,31.9
2019-02-06T07:59:51.622Z,32.1
2019-02-06T08:00:38.548Z,32.3
2019-02-06T08:01:29.254Z,32.6
2019-02-06T08:02:18.391Z,32.1
2019-02-06T08:03:11.284Z,32.1
2019-02-06T08:03:58.406Z,31.9
2019-02-06T08:04:51.789Z,31.8
2019-02-06T08:05:40.306Z,31.6
2019-02-06T08:06:28.624Z,31.4
2019-02-06T08:07:19.705Z,31.3
2019-02-06T08:08:09.007Z,31.1
2019-02-06T08:09:01.631Z,30.9
2019-02-06T08:09:49.585Z,30.8
2019-02-06T08:10:40.047Z,30.6
2019-02-06T08:11:29.467Z,30.4
2019-02-06T08:12:21.864Z,29.8
2019-02-06T08:13:08.880Z,29.3
2019-02-06T08:13:59.877Z,29.1
2019-02-06T08:14:51.397Z,28.8
2019-02-06T08:15:39.992Z,28.6
2019-02-06T08:16:29.884Z,28.5
2019-02-06T08:17:19.579Z,28.3
2019-02-06T08:18:12.682Z,28.2
2019-02-06T08:19:00.536Z,28.1
2019-02-06T08:19:50.457Z,28
2019-02-06T08:20:40.095Z,27.4
2019-02-06T08:21:30.149Z,28.6
2019-02-06T08:22:20.483Z,29.8
2019-02-06T08:23:10.324Z,30.9
2019-02-06T08:24:02.186Z,31.6
2019-02-06T08:24:50.924Z,31.9
2019-02-06T08:25:40.574Z,32
2019-02-06T08:26:30.246Z,32.2
2019-02-06T08:27:26.274Z,32.3
2019-02-06T08:28:10.692Z,32.6
2019-02-06T08:29:00.411Z,32.1
2019-02-06T08:29:51.277Z,32.1
2019-02-06T08:30:40.959Z,32
2019-02-06T08:31:31.783Z,31.8
2019-02-06T08:32:20.991Z,31.6
2019-02-06T08:33:13.141Z,31.5
2019-02-06T08:34:00.832Z,31.3
2019-02-06T08:34:51.687Z,31.2
2019-02-06T08:35:41.718Z,31
2019-02-06T08:36:33.946Z,30.9
2019-02-06T08:37:21.343Z,30.7
2019-02-06T08:38:12.258Z,30.6
2019-02-06T08:39:05.048Z,29.9
2019-02-06T08:39:52.231Z,29.4
2019-02-06T08:40:41.916Z,29.1
2019-02-06T08:41:31.260Z,28.9
2019-02-06T08:42:23.941Z,28.7
2019-02-06T08:43:12.257Z,28.5
2019-02-06T08:44:05.091Z,28.4
2019-02-06T08:44:52.440Z,28.2
2019-02-06T08:45:44.980Z,28.1
2019-02-06T08:46:32.800Z,28
2019-02-06T08:47:22.630Z,27.4
2019-02-06T08:48:12.870Z,28.4
2019-02-06T08:49:02.597Z,29.7
2019-02-06T08:49:53.182Z,30.7
2019-02-06T08:50:42.708Z,31.1
2019-02-06T08:51:34.845Z,31.4
2019-02-06T08:52:22.355Z,31.8
2019-02-06T08:53:13.026Z,31.9
2019-02-06T08:54:03.081Z,32.3
2019-02-06T08:54:54.134Z,32.5
2019-02-06T08:55:42.809Z,32.6
2019-02-06T08:56:32.901Z,32.3
2019-02-06T08:57:24.465Z,32.1
2019-02-06T08:58:12.464Z,31.9
2019-02-06T08:59:03.318Z,31.7
2019-02-06T08:59:52.810Z,31.6
2019-02-06T09:00:46.758Z,31.4
2019-02-06T09:01:32.384Z,31.2
2019-02-06T09:02:22.246Z,31.1
2019-02-06T09:03:13.747Z,30.9
2019-02-06T09:04:03.095Z,30.8
2019-02-06T09:05:09.020Z,30.6
2019-02-06T09:05:43.012Z,30
2019-02-06T09:06:35.401Z,29.6
2019-02-06T09:07:23.170Z,29.2
2019-02-06T09:08:13.505Z,28.9
2019-02-06T09:09:09.561Z,28.7
2019-02-06T09:09:56.475Z,28.5
2019-02-06T09:10:43.979Z,28.4
2019-02-06T09:11:33.929Z,28.3
2019-02-06T09:12:22.471Z,27.6
2019-02-06T09:13:14.633Z,28.7
2019-02-06T09:14:04.384Z,29.8
2019-02-06T09:14:53.954Z,30.3
2019-02-06T09:15:46.771Z,30.9
2019-02-06T09:16:34.553Z,31.4
2019-02-06T09:17:24.395Z,31.8
2019-02-06T09:18:14.698Z,32.1
2019-02-06T09:19:06.729Z,32.4
2019-02-06T09:19:54.576Z,32.7
2019-02-06T09:20:44.533Z,32.9
2019-02-06T09:21:35.181Z,32.4
2019-02-06T09:22:24.941Z,32.2
2019-02-06T09:23:14.540Z,31.9
2019-02-06T09:24:04.985Z,31.8
2019-02-06T09:24:57.955Z,31.6
2019-02-06T09:25:45.260Z,31.4
2019-02-06T09:26:41.378Z,31.3
2019-02-06T09:27:25.038Z,31.1
2019-02-06T09:28:15.058Z,30.9
2019-02-06T09:29:04.683Z,30.8
2019-02-06T09:29:55.729Z,30.6
2019-02-06T09:30:47.588Z,30.3
2019-02-06T09:31:35.300Z,29.6
2019-02-06T09:32:25.730Z,29.3
2019-02-06T09:33:15.162Z,29
2019-02-06T09:34:10.050Z,28.8
2019-02-06T09:34:55.280Z,28.6
2019-02-06T09:35:44.900Z,28.4
2019-02-06T09:36:36.050Z,28.3
2019-02-06T09:37:26.027Z,27.6
2019-02-06T09:38:15.242Z,28.4
2019-02-06T09:39:18.282Z,29.6
2019-02-06T09:39:58.744Z,30.4
2019-02-06T09:40:45.965Z,30.9
2019-02-06T09:41:36.431Z,31.4
2019-02-06T09:42:26.503Z,31.8
2019-02-06T09:43:16.996Z,32.1
2019-02-06T09:44:05.674Z,32.2
2019-02-06T09:44:57.044Z,31.9
2019-02-06T09:45:48.066Z,31.6
2019-02-06T09:46:35.836Z,31.4
2019-02-06T09:47:26.527Z,31.2
2019-02-06T09:48:16.954Z,31
2019-02-06T09:49:08.982Z,30.8
2019-02-06T09:49:59.439Z,30.7
2019-02-06T09:50:45.808Z,30.5
2019-02-06T09:51:37.089Z,30.4
2019-02-06T09:52:35.722Z,30.3
2019-02-06T09:53:16.023Z,30.1
2019-02-06T09:54:07.164Z,30
2019-02-06T09:54:58.746Z,29.9
2019-02-06T09:55:46.344Z,29.8
2019-02-06T09:56:37.129Z,29.7
2019-02-06T09:57:27.378Z,29.6
2019-02-06T09:58:19.858Z,29.5
2019-02-06T09:59:07.604Z,29.4
2019-02-06T09:59:57.146Z,29.3
2019-02-06T10:00:48.119Z,29.2
2019-02-06T10:01:37.618Z,29.1
2019-02-06T10:02:26.623Z,28.9
2019-02-06T10:03:16.441Z,28.8
2019-02-06T10:04:09.892Z,28.8
2019-02-06T10:04:57.766Z,28.6
2019-02-06T10:07:25.446Z,28.3
2019-02-06T10:08:15.700Z,28.1
2019-02-06T10:09:04.998Z,28.1
2019-02-06T10:10:01.209Z,27.9
2019-02-06T10:11:35.058Z,27.7
2019-02-06T10:12:25.194Z,27.6
2019-02-06T10:13:20.150Z,27.4
2019-02-06T10:14:06.815Z,27.3
2019-02-06T10:14:54.785Z,27.2
2019-02-06T10:15:45.387Z,27.1
2019-02-06T10:16:36.095Z,27
2019-02-06T10:17:25.555Z,26.9
2019-02-06T10:18:16.387Z,26.8
2019-02-06T10:19:08.554Z,26.6
2019-02-06T10:19:54.907Z,26.5
2019-02-06T10:20:45.725Z,26.4
2019-02-06T10:21:36.493Z,26.3
2019-02-06T10:22:27.919Z,26.2
2019-02-06T10:23:16.222Z,26.1
2019-02-06T10:24:05.437Z,25.9
2019-02-06T10:24:56.817Z,25.8
2019-02-06T10:25:46.539Z,25.7
2019-02-06T10:26:36.644Z,25.6
2019-02-06T10:27:29.422Z,25.5
2019-02-06T10:28:18.832Z,25.4
2019-02-06T10:29:06.079Z,25.3
2019-02-06T10:29:56.321Z,25.2
2019-02-06T10:30:47.259Z,25.1
2019-02-06T10:31:40.719Z,24.9
2019-02-06T10:32:27.144Z,24.8
2019-02-06T10:33:20.946Z,24.8
2019-02-06T10:34:07.473Z,24.7
2019-02-06T10:34:56.486Z,24.6
2019-02-06T10:35:46.784Z,24.5
2019-02-06T10:36:36.479Z,24.4
2019-02-06T10:37:32.064Z,24.3
2019-02-06T10:38:16.377Z,24.3
2019-02-06T10:39:06.971Z,24.1
2019-02-06T10:40:00.126Z,24.1
2019-02-06T10:40:47.668Z,24
2019-02-06T10:41:36.958Z,23.9
2019-02-06T10:42:26.958Z,23.9
2019-02-06T10:43:36.713Z,23.8
2019-02-06T10:44:07.571Z,23.7
2019-02-06T10:44:57.691Z,23.6
2019-02-06T10:45:48.258Z,23.6
2019-02-06T10:46:39.383Z,23.5
2019-02-06T10:47:28.368Z,23.4
2019-02-06T10:48:17.968Z,23.4
2019-02-06T10:49:07.713Z,23.3
2019-02-06T10:49:58.321Z,23.3
2019-02-06T10:50:47.913Z,23.2
2019-02-06T10:51:37.670Z,23.2
2019-02-06T10:52:31.069Z,23.1
2019-02-06T10:53:18.040Z,23.1
2019-02-06T10:54:08.885Z,23
2019-02-06T10:54:58.670Z,23.1
2019-02-06T10:55:48.535Z,22.9
2019-02-06T10:56:37.659Z,22.9
2019-02-06T10:57:28.090Z,22.8
2019-02-06T10:58:19.272Z,22.8
2019-02-06T10:59:08.942Z,22.8
2019-02-06T10:59:58.805Z,22.7
2019-02-06T11:00:49.468Z,22.7
2019-02-06T11:01:40.844Z,22.6
2019-02-06T11:02:28.104Z,22.6
2019-02-06T11:03:17.978Z,22.6
2019-02-06T11:04:08.135Z,22.6
2019-02-06T11:05:00.365Z,22.5
2019-02-06T11:05:49.022Z,22.5
2019-02-06T11:06:38.390Z,22.4
2019-02-06T11:07:30.809Z,22.4
2019-02-06T11:08:18.537Z,22.4
2019-02-06T11:09:09.152Z,22.4
2019-02-06T11:09:58.842Z,22.3
2019-02-06T11:10:52.292Z,22.3
2019-02-06T11:11:39.862Z,22.3
2019-02-06T11:12:33.092Z,22.3
2019-02-06T11:13:20.123Z,22.2
2019-02-06T11:14:09.981Z,22.2
2019-02-06T11:14:59.814Z,22.2
2019-02-06T11:16:04.859Z,22.2
2019-02-06T11:16:42.355Z,22.1
2019-02-06T11:17:30.499Z,22.1
2019-02-06T11:18:19.754Z,22.1
2019-02-06T11:19:10.321Z,22.1
2019-02-06T11:20:02.588Z,22.1
2019-02-06T11:20:49.966Z,22
2019-02-06T11:21:40.339Z,22
2019-02-06T11:22:30.766Z,22
2019-02-06T11:23:21.451Z,22
2019-02-06T11:24:09.830Z,22
2019-02-06T11:24:59.718Z,21.9
2019-02-06T11:25:53.420Z,21.9
2019-02-06T11:26:40.845Z,21.9
2019-02-06T11:27:30.878Z,21.9
2019-02-06T11:28:19.735Z,21.9
2019-02-06T11:29:12.818Z,21.9
2019-02-06T11:30:00.651Z,21.9
2019-02-06T11:30:51.160Z,21.9
2019-02-06T11:31:41.618Z,21.9
2019-02-06T11:32:30.430Z,21.8
2019-02-06T11:33:21.607Z,21.8
2019-02-06T11:34:10.530Z,21.8
2019-02-06T11:35:06.087Z,21.8
2019-02-06T11:35:51.360Z,21.8
2019-02-06T11:36:40.795Z,21.8
2019-02-06T11:37:31.389Z,21.8
2019-02-06T11:38:19.746Z,21.8
2019-02-06T11:39:11.238Z,21.7
2019-02-06T11:40:08.187Z,21.7
2019-02-06T11:40:52.788Z,21.7
2019-02-06T11:41:40.757Z,21.6
2019-02-06T11:42:30.589Z,21.6
2019-02-06T11:43:21.439Z,21.6
2019-02-06T11:44:26.012Z,21.6
2019-02-06T11:45:02.674Z,21.6
2019-02-06T11:45:51.981Z,21.6
2019-02-06T11:46:42.226Z,21.6
2019-02-06T11:47:31.830Z,21.6
2019-02-06T11:48:22.109Z,21.6
2019-02-06T11:49:12.422Z,21.6
2019-02-06T11:50:04.694Z,21.5
2019-02-06T11:50:52.365Z,21.5
2019-02-06T11:51:42.581Z,21.5
2019-02-06T11:52:32.597Z,21.5
2019-02-06T11:53:28.486Z,21.5
2019-02-06T11:54:13.031Z,21.5
2019-02-06T11:55:03.081Z,21.5
2019-02-06T11:55:52.871Z,21.5
2019-02-06T11:56:42.644Z,21.4
2019-02-06T11:57:33.905Z,21.4
2019-02-06T11:58:22.504Z,21.4
2019-02-06T11:59:15.213Z,21.4
2019-02-06T12:00:03.006Z,21.4
2019-02-06T12:00:55.994Z,21.4
2019-02-06T12:01:42.746Z,21.4
2019-02-06T12:02:45.418Z,21.4
2019-02-06T12:03:25.074Z,21.4
2019-02-06T12:04:12.944Z,21.4
2019-02-06T12:05:04.188Z,21.4
2019-02-06T12:07:23.671Z,21.3
2019-02-06T12:08:20.723Z,21.3
2019-02-06T12:09:03.965Z,21.3
2019-02-06T12:09:54.131Z,21.3
2019-02-06T12:10:47.871Z,21.3
2019-02-06T12:11:35.360Z,21.3
2019-02-06T12:12:25.033Z,21.3
2019-02-06T12:13:15.075Z,21.3
2019-02-06T12:14:08.542Z,21.3
2019-02-06T12:14:54.344Z,21.3
2019-02-06T12:15:47.798Z,21.3
2019-02-06T12:16:38.217Z,21.2
2019-02-06T12:17:25.922Z,21.2
2019-02-06T12:18:15.489Z,21.2
2019-02-06T12:19:20.675Z,21.2
2019-02-06T12:19:58.529Z,21.2
2019-02-06T12:20:45.603Z,21.2
2019-02-06T12:21:35.976Z,21.2
2019-02-06T12:22:25.827Z,21.2
2019-02-06T12:29:56.899Z,21.1
2019-02-06T12:30:47.098Z,21.1
2019-02-06T12:31:36.926Z,21.1
2019-02-06T12:32:27.284Z,21.1
2019-02-06T12:33:16.550Z,21.1
2019-02-06T12:34:07.137Z,21.1
2019-02-06T12:34:59.811Z,21.1
2019-02-06T12:35:46.253Z,21.1
2019-02-06T12:36:36.474Z,21.1
2019-02-06T12:37:26.531Z,21.1
2019-02-06T12:38:17.399Z,21
2019-02-06T12:39:07.708Z,21
2019-02-06T12:39:57.536Z,21
2019-02-06T12:40:48.861Z,21
2019-02-06T12:41:37.578Z,21
2019-02-06T12:42:27.565Z,21
2019-02-06T12:43:19.833Z,21
2019-02-06T12:44:06.591Z,20.9
2019-02-06T12:45:00.015Z,20.9
2019-02-06T12:45:46.868Z,20.9
2019-02-06T12:46:40.340Z,20.9
2019-02-06T12:47:29.230Z,20.9
2019-02-06T12:48:16.643Z,20.9
2019-02-06T12:49:06.832Z,20.9
2019-02-06T12:49:57.701Z,20.9
2019-02-06T12:50:48.587Z,20.9
2019-02-06T12:51:37.747Z,20.9
2019-02-06T12:52:29.785Z,20.9
2019-02-06T12:53:18.186Z,20.9
2019-02-06T12:54:08.323Z,20.9
2019-02-06T12:54:58.910Z,20.9
2019-02-06T12:55:50.462Z,20.9
2019-02-06T12:56:38.460Z,20.9